Beckwith, Iowa
Current Conditions -  °F | °C
As of 6:35 AM on Sunday 21 Dec 2014 (Local Time) from KFFL Reporting Station
Overcast Overcast  
Wind Chill: 30°   Ceiling: 3300
Heat Index: 37°   Visibility: 7mi
Dew Point: 34°   Wind: 10mph
Humidity: 87%   Direction: 170°S
Pressure: 30.09"   Gusts: NA
Location:  40.9879°N, 91.8924°W
Report Text: KFFL 211235Z AUTO 17009KT 7SM FEW025 OVC033 03/01 A3009 RMK AO2
Loading
Personal Weather Stations






























Interactive Weather Map New forecast layout! Learn more

10-Day Weather Forecast

Advertisements
Track Severe Weather on mobile